createdAt,value
2023-03-21T00:00:40.084Z,96926.38
2023-03-21T00:03:06.783Z,96929.78
2023-03-21T00:05:33.388Z,96928.09
2023-03-21T00:08:01.200Z,96933.19
2023-03-21T00:10:39.521Z,96926.38
2023-03-21T00:13:09.233Z,96934.84
2023-03-21T00:15:48.506Z,96923.72
2023-03-21T00:18:25.692Z,96922.84
2023-03-21T00:21:35.305Z,96922.75
2023-03-21T00:23:50.552Z,96919.34
2023-03-21T00:26:17.208Z,96926.97
2023-03-21T00:28:44.113Z,96919.25
2023-03-21T00:31:11.264Z,96930.22
2023-03-21T00:33:39.364Z,96927.56
2023-03-21T00:36:07.385Z,96927.44
2023-03-21T00:38:34.361Z,96918.84
2023-03-21T00:41:10.954Z,96913.63
2023-03-21T00:43:43.999Z,96904.91
2023-03-21T00:46:10.532Z,96912.56
2023-03-21T00:48:37.040Z,96905.69
2023-03-21T00:51:13.346Z,96906.50
2023-03-21T00:53:39.725Z,96903.97
2023-03-21T00:56:06.659Z,96905.59
2023-03-21T00:58:32.984Z,96901.38
2023-03-21T01:01:02.630Z,96903.09
2023-03-21T01:03:29.137Z,96906.47
2023-03-21T01:06:13.619Z,96898.00
2023-03-21T01:08:56.525Z,96897.97
2023-03-21T01:11:26.253Z,96892.88
2023-03-21T01:13:59.640Z,96896.28
2023-03-21T01:16:31.061Z,96888.63
2023-03-21T01:18:58.135Z,96881.91
2023-03-21T01:21:24.564Z,96886.13
2023-03-21T01:23:51.689Z,96888.72
2023-03-21T01:26:18.174Z,96893.84
2023-03-21T01:28:45.292Z,96893.03
2023-03-21T01:31:16.271Z,96893.03
2023-03-21T01:33:43.732Z,96895.56
2023-03-21T01:36:16.670Z,96888.75
2023-03-21T01:38:43.511Z,96891.25
2023-03-21T01:41:47.264Z,96882.78
2023-03-21T01:44:18.199Z,96888.75
2023-03-21T01:46:57.393Z,96889.63
2023-03-21T01:49:38.600Z,96883.66
2023-03-21T01:52:13.023Z,96887.06
2023-03-21T01:54:43.544Z,96877.75
2023-03-21T01:57:16.644Z,96889.75
2023-03-21T01:59:46.303Z,96884.66
2023-03-21T02:02:20.944Z,96875.28
2023-03-21T02:04:51.103Z,96880.50
2023-03-21T02:07:24.214Z,96877.13
2023-03-21T02:09:51.995Z,96873.81
2023-03-21T02:12:19.437Z,96873.81
2023-03-21T02:14:48.985Z,96873.88
2023-03-21T02:17:34.108Z,96872.13
2023-03-21T02:20:22.105Z,96857.66
2023-03-21T02:23:11.007Z,96861.03
2023-03-21T02:26:08.434Z,96854.25
2023-03-21T02:28:46.055Z,96860.22
2023-03-21T02:31:45.447Z,96862.75
2023-03-21T02:34:47.334Z,96867.97
2023-03-21T02:37:28.853Z,96856.06
2023-03-21T02:40:16.650Z,96856.84
2023-03-21T02:43:23.738Z,96847.53
2023-03-21T02:45:50.689Z,96852.56
2023-03-21T02:48:31.324Z,96848.22
2023-03-21T02:51:02.041Z,96850.81
2023-03-21T02:53:34.075Z,96849.94
2023-03-21T02:56:02.308Z,96857.56
2023-03-21T02:58:32.245Z,96852.38
2023-03-21T03:00:58.704Z,96855.81
2023-03-21T03:03:34.000Z,96855.84
2023-03-21T03:06:03.945Z,96844.75
2023-03-21T03:09:01.922Z,96852.44
2023-03-21T03:11:40.322Z,96856.69
2023-03-21T03:14:38.503Z,96853.31
2023-03-21T03:17:03.412Z,96852.41
2023-03-21T03:19:44.703Z,96858.41
2023-03-21T03:22:25.524Z,96857.56
2023-03-21T03:24:58.580Z,96853.31
2023-03-21T03:27:32.522Z,96847.34
2023-03-21T03:30:01.829Z,96846.50
2023-03-21T03:32:54.267Z,96857.56
2023-03-21T03:35:22.653Z,96853.31
2023-03-21T03:37:55.024Z,96854.13
2023-03-21T03:40:30.516Z,96860.06
2023-03-21T03:43:04.675Z,96851.59
2023-03-21T03:45:49.955Z,96851.59
2023-03-21T03:48:46.501Z,96853.31
2023-03-21T03:51:20.998Z,96850.72
2023-03-21T03:53:56.582Z,96853.25
2023-03-21T03:56:25.451Z,96855.75
2023-03-21T03:58:52.085Z,96848.97
2023-03-21T04:01:18.511Z,96849.78
2023-03-21T04:03:51.710Z,96851.50
2023-03-21T04:06:22.867Z,96845.56
2023-03-21T04:08:50.919Z,96847.19
2023-03-21T04:11:17.379Z,96851.47
2023-03-21T04:13:43.786Z,96842.03
2023-03-21T04:16:11.716Z,96849.59
2023-03-21T04:18:39.182Z,96850.38
2023-03-21T04:21:11.022Z,96847.81
2023-03-21T04:23:37.674Z,96843.56
2023-03-21T04:26:05.123Z,96842.66
2023-03-21T04:28:33.369Z,96850.25
2023-03-21T04:31:05.288Z,96851.06
2023-03-21T04:33:38.368Z,96849.34
2023-03-21T04:36:09.184Z,96845.06
2023-03-21T04:38:36.550Z,96845.97
2023-03-21T04:41:03.776Z,96846.78
2023-03-21T04:43:30.880Z,96846.72
2023-03-21T04:45:57.762Z,96840.72
2023-03-21T04:48:24.789Z,96850.88
2023-03-21T04:50:51.840Z,96846.59
2023-03-21T04:53:18.584Z,96849.09
2023-03-21T04:55:45.216Z,96846.59
2023-03-21T04:58:11.950Z,96841.53
2023-03-21T05:00:39.004Z,96837.31
2023-03-21T05:03:09.091Z,96842.44
2023-03-21T05:05:39.400Z,96843.22
2023-03-21T05:08:06.360Z,96842.44
2023-03-21T05:10:33.384Z,96845.81
2023-03-21T05:12:59.915Z,96846.66
2023-03-21T05:15:27.352Z,96847.47
2023-03-21T05:17:53.861Z,96844.00
2023-03-21T05:20:20.537Z,96842.25
2023-03-21T05:22:50.161Z,96841.38
2023-03-21T05:25:18.132Z,96841.34
2023-03-21T05:27:45.393Z,96843.84
2023-03-21T05:30:17.263Z,96841.28
2023-03-21T05:32:43.804Z,96846.38
2023-03-21T05:35:10.783Z,96848.94
2023-03-21T05:37:38.441Z,96845.56
2023-03-21T05:40:07.101Z,96842.13
2023-03-21T05:42:33.471Z,96843.91
2023-03-21T05:44:59.860Z,96852.50
2023-03-21T05:47:26.345Z,96850.00
2023-03-21T05:49:52.753Z,96853.44
2023-03-21T05:52:19.174Z,96860.28
2023-03-21T05:54:45.782Z,96850.94
2023-03-21T05:57:12.180Z,96861.19
2023-03-21T05:59:38.827Z,96856.91
2023-03-21T06:02:05.392Z,96861.25
2023-03-21T06:04:31.843Z,96868.94
2023-03-21T06:06:58.250Z,96862.16
2023-03-21T06:09:26.023Z,96866.44
2023-03-21T06:11:55.402Z,96870.78
2023-03-21T06:14:22.659Z,96866.59
2023-03-21T06:16:49.268Z,96867.53
2023-03-21T06:19:15.697Z,96864.19
2023-03-21T06:21:42.809Z,96859.97
2023-03-21T06:24:10.256Z,96866.06
2023-03-21T06:26:36.825Z,96869.59
2023-03-21T06:29:03.654Z,96867.13
2023-03-21T06:31:30.410Z,96871.50
2023-03-21T06:33:56.938Z,96874.16
2023-03-21T06:36:23.544Z,96877.66
2023-03-21T06:38:49.929Z,96876.94
2023-03-21T06:41:17.048Z,96877.03
2023-03-21T06:43:44.237Z,96878.91
2023-03-21T06:46:11.396Z,96875.59
2023-03-21T06:48:39.260Z,96876.56
2023-03-21T06:51:06.106Z,96874.88
2023-03-21T06:53:35.099Z,96880.09
2023-03-21T06:56:02.562Z,96876.78
2023-03-21T06:58:29.016Z,96880.34
2023-03-21T07:00:58.723Z,96881.22
2023-03-21T07:03:25.630Z,96881.28
2023-03-21T07:05:53.201Z,96877.06
2023-03-21T07:08:19.673Z,96885.72
2023-03-21T07:10:47.108Z,96885.00
2023-03-21T07:13:14.041Z,96879.28
2023-03-21T07:15:41.316Z,96880.31
2023-03-21T07:18:09.489Z,96872.91
2023-03-21T07:20:38.010Z,96873.97
2023-03-21T07:23:04.665Z,96883.50
2023-03-21T07:25:31.430Z,96872.59
2023-03-21T07:27:57.950Z,96876.97
2023-03-21T07:30:24.595Z,96879.75
2023-03-21T07:32:51.017Z,96871.38
2023-03-21T07:35:18.146Z,96882.53
2023-03-21T07:37:44.568Z,96868.91
2023-03-21T07:40:13.022Z,96870.69
2023-03-21T07:42:40.895Z,96866.63
2023-03-21T07:45:08.809Z,96865.94
2023-03-21T07:47:35.708Z,96862.53
2023-03-21T07:50:04.416Z,96861.78
2023-03-21T07:52:33.202Z,96861.91
2023-03-21T07:54:59.888Z,96856.94
2023-03-21T07:57:26.418Z,96862.09
2023-03-21T07:59:52.909Z,96866.41
2023-03-21T08:02:19.300Z,96857.84
2023-03-21T08:04:45.756Z,96859.59
2023-03-21T08:07:12.630Z,96857.06
2023-03-21T08:09:39.029Z,96851.06
2023-03-21T08:12:08.207Z,96855.31
2023-03-21T08:14:36.729Z,96862.13
2023-03-21T08:17:06.733Z,96862.91
2023-03-21T08:19:33.286Z,96861.03
2023-03-21T08:21:59.858Z,96851.41
2023-03-21T08:24:30.237Z,96850.47
2023-03-21T08:26:57.219Z,96850.41
2023-03-21T08:29:25.145Z,96851.97
2023-03-21T08:31:51.627Z,96847.47
2023-03-21T08:34:18.027Z,96845.03
2023-03-21T08:36:44.411Z,96843.81
2023-03-21T08:39:11.101Z,96838.94
2023-03-21T08:41:38.452Z,96851.13
2023-03-21T08:44:06.396Z,96850.28
2023-03-21T08:46:33.300Z,96843.41
2023-03-21T08:48:59.706Z,96838.88
2023-03-21T08:51:26.139Z,96841.22
2023-03-21T08:53:52.681Z,96842.41
2023-03-21T08:56:19.302Z,96844.03
2023-03-21T08:58:45.689Z,96833.53
2023-03-21T09:01:15.720Z,96833.81
2023-03-21T09:03:43.598Z,96833.84
2023-03-21T09:06:14.150Z,96831.31
2023-03-21T09:08:41.942Z,96833.94
2023-03-21T09:11:09.619Z,96829.88
2023-03-21T09:13:36.296Z,96830.47
2023-03-21T09:16:03.882Z,96829.31
2023-03-21T09:18:46.991Z,96832.06
2023-03-21T09:21:15.804Z,96824.34
2023-03-21T09:23:42.410Z,96823.25
2023-03-21T09:26:09.755Z,96822.94
2023-03-21T09:28:40.523Z,96819.94
2023-03-21T09:31:08.910Z,96822.47
2023-03-21T09:33:35.426Z,96816.41
2023-03-21T09:36:02.082Z,96821.13
2023-03-21T09:38:30.479Z,96817.75
2023-03-21T09:41:27.625Z,96822.25
2023-03-21T09:44:08.104Z,96816.69
2023-03-21T09:46:48.862Z,96819.69
2023-03-21T09:49:20.506Z,96812.84
2023-03-21T09:51:51.699Z,96821.06
2023-03-21T09:54:33.331Z,96815.13
2023-03-21T09:57:07.794Z,96815.22
2023-03-21T09:59:40.180Z,96805.06
2023-03-21T10:02:39.287Z,96807.75
2023-03-21T10:05:18.414Z,96806.53
2023-03-21T10:08:05.642Z,96800.16
2023-03-21T10:10:38.130Z,96795.94
2023-03-21T10:13:13.545Z,96793.19
2023-03-21T10:15:40.420Z,96793.03
2023-03-21T10:18:12.798Z,96782.78
2023-03-21T10:20:42.693Z,96784.31
2023-03-21T10:23:14.859Z,96781.00
2023-03-21T10:26:02.228Z,96777.81
2023-03-21T10:28:42.342Z,96774.19
2023-03-21T10:31:21.097Z,96773.13
2023-03-21T10:33:50.046Z,96777.69
2023-03-21T10:36:19.213Z,96773.69
2023-03-21T10:39:02.367Z,96763.16
2023-03-21T10:41:28.979Z,96769.22
2023-03-21T10:44:16.588Z,96772.88
2023-03-21T10:46:57.706Z,96763.69
2023-03-21T10:49:26.577Z,96767.72
2023-03-21T10:51:57.027Z,96772.19
2023-03-21T10:54:29.377Z,96767.72
2023-03-21T10:57:05.217Z,96758.06
2023-03-21T10:59:54.782Z,96759.88
2023-03-21T11:02:31.766Z,96763.16
2023-03-21T11:05:07.685Z,96756.31
2023-03-21T11:07:37.023Z,96759.84
2023-03-21T11:10:17.182Z,96745.75
2023-03-21T11:12:48.224Z,96755.97
2023-03-21T11:15:30.573Z,96750.63
2023-03-21T11:17:58.850Z,96743.25
2023-03-21T11:20:29.479Z,96742.25
2023-03-21T11:22:56.731Z,96740.84
2023-03-21T11:25:36.948Z,96736.31
2023-03-21T11:28:13.918Z,96733.06
2023-03-21T11:30:51.517Z,96723.19
2023-03-21T11:33:20.526Z,96726.19
2023-03-21T11:36:02.831Z,96724.06
2023-03-21T11:38:33.553Z,96718.56
2023-03-21T11:41:03.019Z,96713.94
2023-03-21T11:43:39.696Z,96714.28
2023-03-21T11:46:14.167Z,96707.97
2023-03-21T11:48:46.937Z,96697.84
2023-03-21T11:51:48.851Z,96694.38
2023-03-21T11:54:21.375Z,96692.97
2023-03-21T11:56:52.193Z,96700.16
2023-03-21T11:59:37.273Z,96673.84
2023-03-21T12:02:32.520Z,96671.25
2023-03-21T12:05:19.942Z,96668.91
2023-03-21T12:08:12.469Z,96659.16
2023-03-21T12:10:38.848Z,96665.13
2023-03-21T12:13:05.162Z,96662.06
2023-03-21T12:15:42.138Z,96652.28
2023-03-21T12:18:28.218Z,96650.91
2023-03-21T12:21:00.491Z,96640.44
2023-03-21T12:23:32.688Z,96647.88
2023-03-21T12:26:01.868Z,96640.75
2023-03-21T12:28:53.214Z,96637.84
2023-03-21T12:31:36.021Z,96635.72
2023-03-21T12:34:05.700Z,96635.38
2023-03-21T12:36:53.859Z,96634.31
2023-03-21T12:39:31.714Z,96627.81
2023-03-21T12:42:06.845Z,96627.63
2023-03-21T12:44:39.037Z,96630.16
2023-03-21T12:47:20.720Z,96624.59
2023-03-21T12:49:53.949Z,96622.91
2023-03-21T12:52:29.832Z,96612.88
2023-03-21T12:55:05.863Z,96616.72
2023-03-21T12:57:44.689Z,96612.22
2023-03-21T13:00:23.229Z,96609.81
2023-03-21T13:02:58.764Z,96603.81
2023-03-21T13:05:30.634Z,96602.59
2023-03-21T13:08:13.426Z,96594.88
2023-03-21T13:10:43.367Z,96593.63
2023-03-21T13:13:26.066Z,96599.78
2023-03-21T13:16:10.737Z,96592.69
2023-03-21T13:19:04.627Z,96598.41
2023-03-21T13:21:41.705Z,96600.31
2023-03-21T13:24:40.894Z,96593.31
2023-03-21T13:27:16.389Z,96594.03
2023-03-21T13:29:57.772Z,96590.56
2023-03-21T13:32:33.223Z,96585.13
2023-03-21T13:35:13.547Z,96585.84
2023-03-21T13:37:52.651Z,96577.81
2023-03-21T13:40:27.141Z,96575.22
2023-03-21T13:43:00.213Z,96570.81
2023-03-21T13:45:32.568Z,96573.53
2023-03-21T13:48:25.434Z,96567.50
2023-03-21T13:51:00.735Z,96553.84
2023-03-21T13:53:41.342Z,96556.91
2023-03-21T13:56:20.953Z,96551.97
2023-03-21T13:58:47.594Z,96548.69
2023-03-21T14:01:29.010Z,96545.78
2023-03-21T14:04:13.124Z,96547.81
2023-03-21T14:06:42.866Z,96548.66
2023-03-21T14:09:18.624Z,96549.75
2023-03-21T14:11:47.237Z,96552.22
2023-03-21T14:14:14.526Z,96542.22
2023-03-21T14:16:41.471Z,96539.63
2023-03-21T14:19:11.790Z,96540.94
2023-03-21T14:21:45.558Z,96539.56
2023-03-21T14:24:14.059Z,96540.03
2023-03-21T14:26:44.078Z,96534.25
2023-03-21T14:29:26.222Z,96533.22
2023-03-21T14:31:56.184Z,96532.88
2023-03-21T14:34:25.945Z,96521.47
2023-03-21T14:36:58.092Z,96525.19
2023-03-21T14:39:31.377Z,96524.19
2023-03-21T14:42:06.945Z,96522.63
2023-03-21T14:44:54.336Z,96516.03
2023-03-21T14:47:31.942Z,96520.66
2023-03-21T14:50:00.906Z,96510.47
2023-03-21T14:52:33.206Z,96506.47
2023-03-21T14:55:11.464Z,96514.56
2023-03-21T14:57:38.096Z,96513.47
2023-03-21T15:00:14.553Z,96514.91
2023-03-21T15:02:43.103Z,96520.91
2023-03-21T15:05:13.964Z,96514.59
2023-03-21T15:07:40.803Z,96509.03
2023-03-21T15:10:18.033Z,96518.44
2023-03-21T15:12:59.777Z,96513.28
2023-03-21T15:15:28.383Z,96505.25
2023-03-21T15:18:03.158Z,96507.00
2023-03-21T15:20:34.033Z,96502.81
2023-03-21T15:23:03.545Z,96504.38
2023-03-21T15:25:34.309Z,96500.47
2023-03-21T15:28:01.214Z,96504.16
2023-03-21T15:30:30.250Z,96505.28
2023-03-21T15:32:59.330Z,96495.88
2023-03-21T15:35:30.933Z,96507.59
2023-03-21T15:37:59.790Z,96500.75
2023-03-21T15:40:29.232Z,96506.28
2023-03-21T15:43:19.193Z,96498.63
2023-03-21T15:45:48.391Z,96499.66
2023-03-21T15:48:16.251Z,96496.31
2023-03-21T15:50:52.027Z,96495.63
2023-03-21T15:53:20.181Z,96494.09
2023-03-21T15:55:50.117Z,96497.94
2023-03-21T15:58:22.266Z,96496.38
2023-03-21T16:00:54.961Z,96499.00
2023-03-21T16:03:28.528Z,96499.13
2023-03-21T16:06:30.093Z,96499.41
2023-03-21T16:09:08.677Z,96496.13
2023-03-21T16:11:43.586Z,96501.47
2023-03-21T16:14:10.534Z,96505.84
2023-03-21T16:16:37.752Z,96506.91
2023-03-21T16:19:04.425Z,96501.75
2023-03-21T16:21:32.007Z,96503.44
2023-03-21T16:23:58.688Z,96503.59
2023-03-21T16:26:33.839Z,96496.91
2023-03-21T16:29:00.340Z,96506.56
2023-03-21T16:31:34.004Z,96506.69
2023-03-21T16:34:01.673Z,96507.66
2023-03-21T16:36:36.473Z,96512.94
2023-03-21T16:39:26.620Z,96517.38
2023-03-21T16:41:53.193Z,96519.13
2023-03-21T16:44:20.166Z,96514.09
2023-03-21T16:46:49.690Z,96513.47
2023-03-21T16:49:24.744Z,96520.25
2023-03-21T16:51:52.026Z,96520.31
2023-03-21T16:54:18.504Z,96521.22
2023-03-21T16:56:54.231Z,96523.06
2023-03-21T16:59:22.909Z,96519.81
2023-03-21T17:01:49.595Z,96519.06
2023-03-21T17:04:17.921Z,96521.75
2023-03-21T17:06:54.162Z,96521.06
2023-03-21T17:09:23.561Z,96525.44
2023-03-21T17:11:50.202Z,96523.84
2023-03-21T17:14:17.815Z,96526.50
2023-03-21T17:16:45.685Z,96524.88
2023-03-21T17:19:15.327Z,96526.59
2023-03-21T17:21:42.028Z,96522.47
2023-03-21T17:24:08.835Z,96529.41
2023-03-21T17:26:35.267Z,96528.63
2023-03-21T17:29:02.261Z,96538.19
2023-03-21T17:31:33.615Z,96534.03
2023-03-21T17:34:00.425Z,96543.56
2023-03-21T17:36:32.165Z,96535.91
2023-03-21T17:38:58.919Z,96540.19
2023-03-21T17:41:26.456Z,96543.63
2023-03-21T17:43:53.244Z,96541.13
2023-03-21T17:46:25.019Z,96535.19
2023-03-21T17:48:51.730Z,96536.94
2023-03-21T17:51:18.598Z,96540.44
2023-03-21T17:53:47.332Z,96536.22
2023-03-21T17:56:26.212Z,96538.00
2023-03-21T17:58:53.904Z,96540.66
2023-03-21T18:01:20.884Z,96550.16
2023-03-21T18:03:47.324Z,96561.31
2023-03-21T18:06:16.398Z,96543.34
2023-03-21T18:08:43.131Z,96552.78
2023-03-21T18:11:12.605Z,96555.41
2023-03-21T18:13:40.408Z,96557.13
2023-03-21T18:16:20.047Z,96557.16
2023-03-21T18:18:47.174Z,96552.91
2023-03-21T18:21:14.517Z,96554.69
2023-03-21T18:23:41.588Z,96551.31
2023-03-21T18:26:09.797Z,96557.34
2023-03-21T18:28:39.629Z,96557.38
2023-03-21T18:31:19.114Z,96557.38
2023-03-21T18:33:48.151Z,96554.00
2023-03-21T18:36:24.477Z,96561.75
2023-03-21T18:38:51.842Z,96560.97
2023-03-21T18:41:22.739Z,96563.56
2023-03-21T18:44:13.571Z,96558.44
2023-03-21T18:46:36.664Z,96551.66
2023-03-21T18:49:33.509Z,96559.41
2023-03-21T18:51:50.605Z,96555.16
2023-03-21T18:54:17.149Z,96556.06
2023-03-21T18:59:34.578Z,96555.25
2023-03-21T19:02:02.042Z,96554.38
2023-03-21T19:04:30.425Z,96558.69
2023-03-21T19:06:57.636Z,96562.13
2023-03-21T19:09:29.417Z,96553.56
2023-03-21T19:11:58.144Z,96557.03
2023-03-21T19:14:24.580Z,96561.34
2023-03-21T19:19:39.390Z,96575.06
2023-03-21T19:22:06.265Z,96573.34
2023-03-21T19:24:32.842Z,96574.22
2023-03-21T19:26:59.555Z,96577.69
2023-03-21T19:29:26.258Z,96581.09
2023-03-21T19:31:53.371Z,96579.41
2023-03-21T19:34:20.670Z,96578.56
2023-03-21T19:36:51.486Z,96578.53
2023-03-21T19:39:21.925Z,96579.44
2023-03-21T19:41:48.764Z,96586.28
2023-03-21T19:44:15.346Z,96584.53
2023-03-21T19:46:42.165Z,96573.44
2023-03-21T19:49:09.570Z,96569.19
2023-03-21T19:51:37.118Z,96569.16
2023-03-21T19:54:05.473Z,96564.91
2023-03-21T19:56:32.219Z,96565.75
2023-03-21T19:58:58.965Z,96557.25
2023-03-21T20:01:26.252Z,96570.06
2023-03-21T20:03:53.425Z,96564.94
2023-03-21T20:06:22.448Z,96564.09
2023-03-21T20:09:27.283Z,96561.56
2023-03-21T20:11:35.977Z,96568.41
2023-03-21T20:14:03.295Z,96567.59
2023-03-21T20:16:35.117Z,96566.75
2023-03-21T20:19:03.646Z,96559.91
2023-03-21T20:21:36.557Z,96569.38
2023-03-21T20:24:09.018Z,96575.41
2023-03-21T20:26:37.314Z,96569.44
2023-03-21T20:29:38.159Z,96562.63
2023-03-21T20:31:50.576Z,96565.19
2023-03-21T20:34:18.065Z,96560.94
2023-03-21T20:36:44.891Z,96565.22
2023-03-21T20:39:11.656Z,96564.38
2023-03-21T20:41:38.265Z,96579.81
2023-03-21T20:46:51.741Z,96572.09
2023-03-21T20:49:19.962Z,96572.94
2023-03-21T20:52:49.336Z,96569.53
2023-03-21T20:54:34.674Z,96570.38
2023-03-21T20:57:01.545Z,96570.38
2023-03-21T20:59:29.270Z,96567.81
2023-03-21T21:01:57.324Z,96578.06
2023-03-21T21:04:41.268Z,96577.22
2023-03-21T21:07:15.888Z,96574.66
2023-03-21T21:09:44.171Z,96572.94
2023-03-21T21:12:11.661Z,96578.09
2023-03-21T21:14:38.822Z,96569.53
2023-03-21T21:17:23.188Z,96571.25
2023-03-21T21:19:52.991Z,96568.72
2023-03-21T21:22:19.348Z,96578.13
2023-03-21T21:24:45.818Z,96579.84
2023-03-21T21:27:12.298Z,96573.84
2023-03-21T21:29:38.701Z,96576.41
2023-03-21T21:32:05.356Z,96573.88
2023-03-21T21:34:32.105Z,96579.00
2023-03-21T21:36:58.509Z,96570.47
2023-03-21T21:39:26.429Z,96573.00
2023-03-21T21:41:53.744Z,96568.75
2023-03-21T21:44:20.331Z,96568.75
2023-03-21T21:46:47.101Z,96567.88
2023-03-21T21:49:13.674Z,96559.34
2023-03-21T21:51:41.851Z,96561.94
2023-03-21T21:54:08.555Z,96565.34
2023-03-21T21:56:36.936Z,96570.50
2023-03-21T21:59:04.376Z,96572.19
2023-03-21T22:01:34.486Z,96572.19
2023-03-21T22:04:07.920Z,96569.63
2023-03-21T22:06:34.739Z,96560.19
2023-03-21T22:09:02.258Z,96565.38
2023-03-21T22:11:28.713Z,96554.19
2023-03-21T22:13:55.463Z,96561.91
2023-03-21T22:16:22.531Z,96567.91
2023-03-21T22:18:48.952Z,96570.47
2023-03-21T22:21:15.447Z,96564.47
2023-03-21T22:23:42.814Z,96557.63
2023-03-21T22:26:10.569Z,96561.94
2023-03-21T22:28:40.167Z,96560.22
2023-03-21T22:31:13.589Z,96560.19
2023-03-21T22:33:40.067Z,96558.47
2023-03-21T22:36:06.915Z,96554.22
2023-03-21T22:38:34.487Z,96556.78
2023-03-21T22:41:04.789Z,96546.53
2023-03-21T22:43:34.018Z,96556.78
2023-03-21T22:46:03.033Z,96548.25
2023-03-21T22:48:32.604Z,96550.81
2023-03-21T22:51:00.323Z,96556.78
2023-03-21T22:53:26.784Z,96561.91
2023-03-21T22:55:53.496Z,96563.63
2023-03-21T22:58:20.340Z,96558.50
2023-03-21T23:00:47.305Z,96562.75
2023-03-21T23:03:14.656Z,96565.31
2023-03-21T23:05:41.586Z,96554.22
2023-03-21T23:08:08.237Z,96563.59
2023-03-21T23:10:38.666Z,96546.50
2023-03-21T23:13:05.490Z,96553.34
2023-03-21T23:15:32.006Z,96555.09
2023-03-21T23:17:58.394Z,96553.34
2023-03-21T23:20:24.828Z,96550.78
2023-03-21T23:22:51.221Z,96556.75
2023-03-21T23:25:20.371Z,96556.78
2023-03-21T23:27:46.834Z,96555.91
2023-03-21T23:30:13.353Z,96559.31
2023-03-21T23:32:39.731Z,96557.63
2023-03-21T23:35:06.942Z,96552.50
2023-03-21T23:37:33.280Z,96558.47
2023-03-21T23:39:59.691Z,96552.47
2023-03-21T23:42:28.905Z,96551.63
2023-03-21T23:44:55.658Z,96547.38
2023-03-21T23:47:22.032Z,96559.28
2023-03-21T23:49:50.130Z,96556.72
2023-03-21T23:52:16.598Z,96557.59
2023-03-21T23:54:43.253Z,96553.31
2023-03-21T23:57:09.905Z,96555.88
2023-03-21T23:59:36.403Z,96560.13
